Time;durP1;ratioP1;P1;durP2;ratioP2;P2;SDS_P1;SDS_P2;PMS_P1;PMS_P2;Temp;Humidity;BMP_temperature;BMP_pressure;BME280_temperature;BME280_humidity;BME280_pressure;Samples;Min_cycle;Max_cycle;Signal;HPM_P1;HPM_P2
2023/08/21 00:01:21;;;;;;;19.30;17.53;;;27.40;99.90;;;;;;4819837;29;20433;-85
2023/08/21 00:03:47;;;;;;;19.50;16.40;;;27.40;99.90;;;;;;4819233;29;20434;-80
2023/08/21 00:06:12;;;;;;;19.40;17.80;;;27.40;99.90;;;;;;4819408;29;20198;-85
2023/08/21 00:08:38;;;;;;;20.07;18.37;;;27.40;99.90;;;;;;4819092;29;20194;-79
2023/08/21 00:11:04;;;;;;;19.53;17.73;;;27.40;99.90;;;;;;4817714;29;20688;-79
2023/08/21 00:13:30;;;;;;;19.97;18.17;;;27.30;99.90;;;;;;4819243;29;20319;-84
2023/08/21 00:15:55;;;;;;;19.80;18.07;;;27.30;99.90;;;;;;4817557;29;20206;-79
2023/08/21 00:18:22;;;;;;;19.57;17.80;;;27.30;99.90;;;;;;4817286;29;20225;-79
2023/08/21 00:20:47;;;;;;;19.60;17.70;;;27.30;99.90;;;;;;4817542;29;20202;-79
2023/08/21 00:23:13;;;;;;;18.80;17.20;;;27.20;99.90;;;;;;4819087;29;20425;-85
2023/08/21 00:25:39;;;;;;;20.37;18.50;;;27.20;99.90;;;;;;4818973;29;20229;-79
2023/08/21 00:28:05;;;;;;;21.07;19.17;;;27.10;99.90;;;;;;4817521;29;20535;-79
2023/08/21 00:30:31;;;;;;;20.07;18.13;;;27.10;99.90;;;;;;4817957;29;20548;-80
2023/08/21 00:32:57;;;;;;;22.00;20.00;;;27.10;99.90;;;;;;4818720;29;20686;-84
2023/08/21 00:35:22;;;;;;;19.80;17.90;;;27.10;99.90;;;;;;4819325;29;20202;-84
2023/08/21 00:37:48;;;;;;;20.20;18.37;;;27.10;99.90;;;;;;4818461;29;20368;-85
2023/08/21 00:40:14;;;;;;;20.40;18.50;;;27.10;99.90;;;;;;4817556;29;20211;-85
2023/08/21 00:42:39;;;;;;;20.03;18.33;;;27.00;99.90;;;;;;4816275;29;20189;-79
2023/08/21 00:45:08;;;;;;;20.10;18.30;;;27.00;99.90;;;;;;4818777;29;20284;-79
2023/08/21 00:47:34;;;;;;;20.80;18.87;;;27.00;99.90;;;;;;4817050;29;20274;-85
2023/08/21 00:50:01;;;;;;;21.30;19.20;;;27.00;99.90;;;;;;4818902;29;20522;-79
2023/08/21 00:52:27;;;;;;;21.20;18.43;;;27.00;99.90;;;;;;4817123;29;20420;-85
2023/08/21 00:54:54;;;;;;;19.83;18.13;;;27.00;99.90;;;;;;4818620;29;21016;-79
2023/08/21 00:57:20;;;;;;;19.73;17.93;;;26.90;99.90;;;;;;4817385;29;21120;-84
2023/08/21 00:59:47;;;;;;;20.10;18.40;;;27.00;99.90;;;;;;4832282;29;20458;-83
2023/08/21 01:02:13;;;;;;;21.00;19.20;;;27.00;99.90;;;;;;4816814;29;20437;-79
2023/08/21 01:04:38;;;;;;;20.53;18.80;;;26.90;99.90;;;;;;4816958;29;20553;-85
2023/08/21 01:07:09;;;;;;;20.40;18.47;;;26.90;99.90;;;;;;4817055;29;20190;-85
2023/08/21 01:10:03;;;;;;;21.30;19.00;;;26.90;99.90;;;;;;4832181;29;20232;-79
2023/08/21 01:12:43;;;;;;;20.20;18.30;;;26.90;99.90;;;;;;4831996;29;20430;-79
2023/08/21 01:15:12;;;;;;;20.00;18.20;;;26.80;99.90;;;;;;4818488;29;20454;-85
2023/08/21 01:17:38;;;;;;;20.80;19.00;;;26.80;99.90;;;;;;4816334;29;20476;-84
2023/08/21 01:20:08;;;;;;;19.40;17.70;;;26.80;99.90;;;;;;4818523;29;20477;-84
2023/08/21 01:22:39;;;;;;;22.00;19.97;;;26.80;99.90;;;;;;4816843;29;20958;-79
2023/08/21 01:25:06;;;;;;;21.93;19.73;;;26.70;99.90;;;;;;4816964;29;20526;-85
2023/08/21 01:27:33;;;;;;;20.07;18.27;;;26.70;99.90;;;;;;4817493;29;20415;-84
2023/08/21 01:29:59;;;;;;;22.83;20.23;;;26.70;99.90;;;;;;4818009;29;20483;-85
2023/08/21 01:32:47;;;;;;;21.13;18.87;;;26.60;99.90;;;;;;4816472;29;20429;-79
2023/08/21 01:35:13;;;;;;;21.53;19.47;;;26.60;99.90;;;;;;4816915;29;20998;-79
2023/08/21 01:37:39;;;;;;;21.87;19.83;;;26.60;99.90;;;;;;4816327;29;20484;-84
2023/08/21 01:40:05;;;;;;;23.50;21.10;;;26.60;99.90;;;;;;4816440;29;20470;-85
2023/08/21 01:42:34;;;;;;;20.50;18.50;;;26.60;99.90;;;;;;4817537;29;20406;-85
2023/08/21 01:45:00;;;;;;;23.10;20.90;;;26.50;99.90;;;;;;4815963;29;20761;-85
2023/08/21 01:47:25;;;;;;;22.27;20.17;;;26.60;99.90;;;;;;4816923;29;20932;-79
2023/08/21 01:49:52;;;;;;;21.90;19.90;;;26.50;99.90;;;;;;4817788;29;20205;-79
2023/08/21 01:52:18;;;;;;;23.27;21.17;;;26.60;99.90;;;;;;4817723;29;20186;-79
2023/08/21 01:54:44;;;;;;;23.60;21.27;;;26.50;99.90;;;;;;4815594;29;20659;-79
2023/08/21 01:57:10;;;;;;;22.30;20.30;;;26.50;99.90;;;;;;4816249;29;20478;-83
2023/08/21 01:59:35;;;;;;;24.10;21.60;;;26.40;99.90;;;;;;4816277;29;20217;-79
2023/08/21 02:02:01;;;;;;;23.30;21.10;;;26.40;99.90;;;;;;4817742;29;20185;-83
2023/08/21 02:04:27;;;;;;;21.90;19.90;;;26.40;99.90;;;;;;4817435;29;20196;-79
2023/08/21 02:06:52;;;;;;;21.90;19.90;;;26.40;99.90;;;;;;4817468;29;20178;-80
2023/08/21 02:09:18;;;;;;;24.47;22.23;;;26.40;99.90;;;;;;4817571;29;20197;-79
2023/08/21 02:11:44;;;;;;;21.03;19.03;;;26.40;99.90;;;;;;4816070;29;20590;-79
2023/08/21 02:14:09;;;;;;;22.80;20.57;;;26.40;99.90;;;;;;4815051;29;20194;-83
2023/08/21 02:16:35;;;;;;;23.20;21.10;;;26.40;99.90;;;;;;4817386;29;20197;-79
2023/08/21 02:19:03;;;;;;;22.90;20.80;;;26.40;99.90;;;;;;4817283;29;20286;-85
2023/08/21 02:21:29;;;;;;;21.67;19.57;;;26.40;99.90;;;;;;4815964;29;20232;-79
2023/08/21 02:23:55;;;;;;;27.23;21.50;;;26.40;99.90;;;;;;4815665;29;20473;-80
2023/08/21 02:26:20;;;;;;;22.33;20.23;;;26.30;99.90;;;;;;4816050;29;20467;-85
2023/08/21 02:28:46;;;;;;;23.27;21.23;;;26.30;99.90;;;;;;4816796;29;20334;-85
2023/08/21 02:31:12;;;;;;;24.57;22.23;;;26.30;99.90;;;;;;4817380;29;20720;-79
2023/08/21 02:33:38;;;;;;;22.97;20.80;;;26.20;99.90;;;;;;4817072;29;20190;-79
2023/08/21 02:36:04;;;;;;;23.60;21.37;;;26.20;99.90;;;;;;4815686;29;20448;-85
2023/08/21 02:38:30;;;;;;;24.00;21.70;;;26.20;99.90;;;;;;4816986;29;20844;-85
2023/08/21 02:40:56;;;;;;;23.47;21.07;;;26.20;99.90;;;;;;4815633;29;20532;-79
2023/08/21 02:43:22;;;;;;;24.47;21.70;;;26.20;99.90;;;;;;4815524;29;20189;-85
2023/08/21 02:45:47;;;;;;;23.57;21.27;;;26.20;99.90;;;;;;4815633;29;20359;-80
2023/08/21 02:48:13;;;;;;;23.07;20.87;;;26.20;99.90;;;;;;4815365;29;20513;-85
2023/08/21 02:50:39;;;;;;;23.03;20.83;;;26.10;99.90;;;;;;4816285;29;20198;-79
2023/08/21 02:53:04;;;;;;;23.87;21.67;;;26.10;99.90;;;;;;4815038;29;20190;-79
2023/08/21 02:55:30;;;;;;;24.83;22.47;;;26.00;99.90;;;;;;4815382;29;20333;-79
2023/08/21 02:57:56;;;;;;;25.43;22.80;;;26.00;99.90;;;;;;4815150;29;20217;-79
2023/08/21 03:00:21;;;;;;;24.20;22.10;;;26.00;99.90;;;;;;4817356;29;20556;-85
2023/08/21 03:02:47;;;;;;;25.50;22.90;;;26.00;99.90;;;;;;4816510;29;20190;-80
2023/08/21 03:05:14;;;;;;;24.13;21.70;;;26.00;99.90;;;;;;4817252;29;20232;-85
2023/08/21 03:07:39;;;;;;;24.73;22.43;;;25.90;99.90;;;;;;4815518;29;20571;-79
2023/08/21 03:10:06;;;;;;;22.87;20.60;;;25.90;99.90;;;;;;4815426;29;20531;-79
2023/08/21 03:12:33;;;;;;;26.73;23.97;;;25.90;99.90;;;;;;4815102;29;20177;-80
2023/08/21 03:14:58;;;;;;;25.40;23.10;;;25.90;99.90;;;;;;4815268;29;20465;-79
2023/08/21 03:17:24;;;;;;;25.70;23.10;;;25.90;99.90;;;;;;4815214;29;20476;-79
2023/08/21 03:19:50;;;;;;;25.40;23.00;;;25.90;99.90;;;;;;4815301;29;20209;-85
2023/08/21 03:22:16;;;;;;;27.07;24.33;;;26.00;99.90;;;;;;4815302;29;20424;-84
2023/08/21 03:24:41;;;;;;;25.50;22.20;;;26.00;99.90;;;;;;4817306;29;20233;-84
2023/08/21 03:27:07;;;;;;;22.40;20.03;;;26.00;99.90;;;;;;4820169;29;20182;-79
2023/08/21 03:29:33;;;;;;;25.37;22.33;;;26.00;99.90;;;;;;4819570;29;20190;-85
2023/08/21 03:31:58;;;;;;;26.67;22.73;;;26.00;99.90;;;;;;4819492;29;20611;-79
2023/08/21 03:34:24;;;;;;;25.37;23.00;;;25.90;99.90;;;;;;4819862;29;20671;-85
2023/08/21 03:36:50;;;;;;;25.17;22.67;;;25.90;99.90;;;;;;4818977;29;20182;-79
2023/08/21 03:39:15;;;;;;;25.77;23.20;;;25.90;99.90;;;;;;4817300;29;20288;-80
2023/08/21 03:41:41;;;;;;;25.80;23.10;;;25.90;99.90;;;;;;4818812;29;20531;-79
2023/08/21 03:44:07;;;;;;;26.50;24.07;;;25.90;99.90;;;;;;4818468;29;20659;-79
2023/08/21 03:46:32;;;;;;;25.37;22.87;;;25.90;99.90;;;;;;4817177;29;20240;-85
2023/08/21 03:48:58;;;;;;;25.10;22.50;;;25.90;99.90;;;;;;4817552;29;20212;-79
2023/08/21 03:51:24;;;;;;;25.50;22.93;;;25.80;99.90;;;;;;4816576;29;20696;-79
2023/08/21 03:53:50;;;;;;;26.80;24.20;;;25.80;99.90;;;;;;4815785;29;20337;-79
2023/08/21 03:56:16;;;;;;;25.33;22.90;;;25.80;99.90;;;;;;4815125;29;20300;-85
2023/08/21 03:58:42;;;;;;;26.53;24.13;;;25.80;99.90;;;;;;4830654;29;20911;-80
2023/08/21 04:01:07;;;;;;;26.77;24.07;;;25.80;99.90;;;;;;4815970;29;20584;-79
2023/08/21 04:03:33;;;;;;;24.77;22.17;;;25.80;99.90;;;;;;4817273;29;20218;-84
2023/08/21 04:05:59;;;;;;;25.33;22.73;;;25.80;99.90;;;;;;4817476;29;20296;-85
2023/08/21 04:08:25;;;;;;;25.07;22.57;;;25.70;99.90;;;;;;4819114;29;20478;-84
2023/08/21 04:10:53;;;;;;;26.00;23.20;;;25.70;99.90;;;;;;4818639;29;20481;-85
2023/08/21 04:13:19;;;;;;;25.60;22.93;;;25.70;99.90;;;;;;4817552;29;20193;-85
2023/08/21 04:15:45;;;;;;;27.47;24.53;;;25.70;99.90;;;;;;4818735;29;20429;-85
2023/08/21 04:18:11;;;;;;;24.60;22.23;;;25.70;99.90;;;;;;4818825;29;20262;-84
2023/08/21 04:20:40;;;;;;;25.47;23.10;;;25.70;99.90;;;;;;4817742;29;20441;-85
2023/08/21 04:23:05;;;;;;;26.10;23.60;;;25.80;99.90;;;;;;4819010;29;20235;-78
2023/08/21 04:25:31;;;;;;;57.90;44.17;;;25.80;99.90;;;;;;4832258;29;20454;-79
2023/08/21 04:27:57;;;;;;;35.50;31.93;;;25.80;99.90;;;;;;4830810;29;20582;-79
2023/08/21 04:30:22;;;;;;;26.40;23.90;;;25.80;99.90;;;;;;4815396;29;20201;-79
2023/08/21 04:32:48;;;;;;;24.40;22.20;;;25.80;99.90;;;;;;4830551;29;20219;-79
2023/08/21 04:35:15;;;;;;;24.70;22.27;;;25.80;99.90;;;;;;4817475;29;20651;-79
2023/08/21 04:37:44;;;;;;;25.37;23.00;;;25.80;99.90;;;;;;4828072;29;20488;-79
2023/08/21 04:40:11;;;;;;;25.33;22.93;;;25.80;99.90;;;;;;4836585;29;20460;-79
2023/08/21 04:42:36;;;;;;;26.83;23.97;;;25.80;99.90;;;;;;4850260;29;20820;-79
2023/08/21 04:45:02;;;;;;;24.57;22.37;;;25.90;99.90;;;;;;4834070;29;20457;-85
2023/08/21 04:47:28;;;;;;;25.70;23.30;;;25.90;99.90;;;;;;4817810;29;20178;-84
2023/08/21 04:49:55;;;;;;;25.37;23.00;;;25.90;99.90;;;;;;4817168;29;20698;-85
2023/08/21 04:52:21;;;;;;;28.93;25.97;;;25.90;99.90;;;;;;4817015;29;20189;-85
2023/08/21 04:54:51;;;;;;;26.47;23.87;;;25.90;99.90;;;;;;4817891;29;20473;-86
2023/08/21 04:57:20;;;;;;;25.03;22.43;;;26.00;99.90;;;;;;4831300;29;20662;-84
2023/08/21 04:59:46;;;;;;;26.13;23.33;;;25.90;99.90;;;;;;4816910;29;20480;-80
2023/08/21 05:02:12;;;;;;;25.47;23.17;;;26.00;99.90;;;;;;4815971;29;20503;-84
2023/08/21 05:04:38;;;;;;;23.70;21.30;;;26.00;99.90;;;;;;4818033;29;20473;-84
2023/08/21 05:07:04;;;;;;;27.20;23.97;;;26.00;99.90;;;;;;4831592;29;20633;-83
2023/08/21 05:09:30;;;;;;;24.77;22.17;;;26.00;99.90;;;;;;4816521;29;20200;-85
2023/08/21 05:11:57;;;;;;;25.40;22.63;;;26.10;99.90;;;;;;4816476;29;20477;-84
2023/08/21 05:14:23;;;;;;;27.43;24.67;;;26.10;99.90;;;;;;4831958;29;20436;-85
2023/08/21 05:16:49;;;;;;;25.67;23.27;;;26.20;99.90;;;;;;4816427;29;20664;-84
2023/08/21 05:19:16;;;;;;;56.03;46.43;;;26.20;99.90;;;;;;4817904;29;20700;-79
2023/08/21 05:21:41;;;;;;;28.60;25.70;;;26.20;99.90;;;;;;4823013;29;20409;-85
2023/08/21 05:24:07;;;;;;;24.53;21.70;;;26.20;99.90;;;;;;4850084;29;20444;-85
2023/08/21 05:26:34;;;;;;;29.37;25.17;;;26.20;99.90;;;;;;4850313;29;20205;-85
2023/08/21 05:29:00;;;;;;;25.13;22.77;;;26.30;99.90;;;;;;4836251;29;20200;-79
2023/08/21 05:31:26;;;;;;;27.30;24.70;;;26.30;99.90;;;;;;4830520;29;20454;-85
2023/08/21 05:33:52;;;;;;;26.83;24.13;;;26.30;99.90;;;;;;4815491;29;20194;-79
2023/08/21 05:36:17;;;;;;;25.53;23.23;;;26.40;99.90;;;;;;4813306;29;20727;-80
2023/08/21 05:38:43;;;;;;;25.23;22.63;;;26.40;99.90;;;;;;4817325;29;20641;-85
2023/08/21 05:41:09;;;;;;;25.17;22.57;;;26.50;99.90;;;;;;4815614;29;20236;-79
2023/08/21 05:43:34;;;;;;;24.97;22.77;;;26.50;99.90;;;;;;4816856;29;20194;-80
2023/08/21 05:46:00;;;;;;;25.07;22.87;;;26.60;99.90;;;;;;4815504;29;20244;-80
2023/08/21 05:48:25;;;;;;;27.17;24.40;;;26.60;99.90;;;;;;4817287;29;20652;-85
2023/08/21 05:50:52;;;;;;;24.30;22.10;;;26.70;99.90;;;;;;4816448;29;20277;-85
2023/08/21 05:53:18;;;;;;;25.27;22.97;;;26.80;99.90;;;;;;4812449;29;20347;-80
2023/08/21 05:55:44;;;;;;;25.33;22.97;;;26.80;99.90;;;;;;4813463;29;20479;-85
2023/08/21 05:58:09;;;;;;;25.83;23.40;;;26.90;99.90;;;;;;4810039;29;20642;-79
2023/08/21 06:00:35;;;;;;;22.00;20.10;;;26.90;99.90;;;;;;4809710;29;20387;-85
2023/08/21 06:03:01;;;;;;;23.07;20.97;;;27.00;99.90;;;;;;4812025;29;20202;-84
2023/08/21 06:05:27;;;;;;;23.30;21.30;;;27.00;99.90;;;;;;4812282;29;20469;-80
2023/08/21 06:07:52;;;;;;;24.50;22.20;;;27.10;99.90;;;;;;4813840;29;20963;-85
2023/08/21 06:10:18;;;;;;;22.80;20.80;;;27.20;99.90;;;;;;4814710;29;20222;-85
2023/08/21 06:12:44;;;;;;;23.23;20.90;;;27.20;99.90;;;;;;4803676;29;20200;-84
2023/08/21 06:15:10;;;;;;;22.43;20.33;;;27.30;99.90;;;;;;4812314;29;20968;-84
2023/08/21 06:17:40;;;;;;;25.53;20.87;;;27.40;99.90;;;;;;4813766;29;20752;-85
2023/08/21 06:20:08;;;;;;;23.97;19.93;;;27.40;99.90;;;;;;4827053;29;20569;-84
2023/08/21 06:22:37;;;;;;;19.93;17.93;;;27.50;99.90;;;;;;4827373;29;20517;-79
2023/08/21 06:25:03;;;;;;;21.83;19.63;;;27.50;99.90;;;;;;4814534;29;20862;-80
2023/08/21 06:27:28;;;;;;;23.20;21.20;;;27.50;99.90;;;;;;4813600;29;20418;-79
2023/08/21 06:29:54;;;;;;;22.40;20.10;;;27.60;99.90;;;;;;4819452;29;20499;-85
2023/08/21 06:32:20;;;;;;;21.50;19.70;;;27.60;99.90;;;;;;4829088;29;20178;-85
2023/08/21 06:34:45;;;;;;;20.53;18.83;;;27.60;99.90;;;;;;4829936;29;20217;-79
2023/08/21 06:37:12;;;;;;;21.83;19.73;;;27.70;99.90;;;;;;4831930;29;20297;-85
2023/08/21 06:39:38;;;;;;;22.00;19.80;;;27.80;99.90;;;;;;4825114;29;20781;-85
2023/08/21 06:42:04;;;;;;;20.60;18.77;;;27.80;99.90;;;;;;4815110;29;20434;-80
2023/08/21 06:44:30;;;;;;;21.20;19.20;;;27.90;99.90;;;;;;4814826;29;20307;-80
2023/08/21 06:46:55;;;;;;;22.53;20.70;;;28.00;99.90;;;;;;4815072;29;20432;-83
2023/08/21 06:49:21;;;;;;;23.10;20.80;;;28.10;99.90;;;;;;4812844;29;20288;-85
2023/08/21 06:51:46;;;;;;;23.17;20.97;;;28.10;99.90;;;;;;4811915;29;20257;-80
2023/08/21 06:54:12;;;;;;;21.33;19.60;;;28.30;99.90;;;;;;4812126;29;20317;-85
2023/08/21 06:56:39;;;;;;;22.10;19.83;;;28.30;99.90;;;;;;4813145;29;20509;-79
2023/08/21 06:59:05;;;;;;;35.57;30.40;;;28.40;99.90;;;;;;4811022;29;20469;-80
2023/08/21 07:01:30;;;;;;;22.50;20.20;;;28.40;99.90;;;;;;4812780;29;20791;-85
2023/08/21 07:03:56;;;;;;;21.80;20.00;;;28.40;99.90;;;;;;4815386;29;20189;-85
2023/08/21 07:06:22;;;;;;;22.03;20.03;;;28.40;99.90;;;;;;4818283;29;20675;-85
2023/08/21 07:08:48;;;;;;;22.13;20.13;;;28.50;99.90;;;;;;4817290;29;20694;-80
2023/08/21 07:11:14;;;;;;;21.43;19.50;;;28.60;99.90;;;;;;4841089;29;20249;-85
2023/08/21 07:13:39;;;;;;;20.70;18.70;;;28.60;99.90;;;;;;4850583;29;20195;-81
2023/08/21 07:16:06;;;;;;;19.77;18.07;;;28.60;99.90;;;;;;4816462;29;20460;-85
2023/08/21 07:18:35;;;;;;;20.47;18.67;;;28.60;99.90;;;;;;4832212;29;20232;-85
2023/08/21 07:21:04;;;;;;;20.43;18.27;;;28.70;99.90;;;;;;4813263;29;20445;-85
2023/08/21 07:23:31;;;;;;;20.33;18.57;;;28.70;99.90;;;;;;4812399;29;20441;-80
2023/08/21 07:25:58;;;;;;;19.67;17.90;;;28.90;99.90;;;;;;4799187;29;21050;-85
2023/08/21 07:28:23;;;;;;;19.57;17.93;;;28.90;99.90;;;;;;4812726;29;20497;-79
2023/08/21 07:30:56;;;;;;;19.17;17.37;;;29.00;99.90;;;;;;4810212;29;20523;-80
2023/08/21 07:33:22;;;;;;;20.03;18.33;;;28.90;99.90;;;;;;4828988;29;20177;-86
2023/08/21 07:35:56;;;;;;;18.57;17.10;;;29.10;99.90;;;;;;4829826;29;20442;-79
2023/08/21 07:38:21;;;;;;;18.70;17.00;;;29.30;99.90;;;;;;4830116;29;20737;-85
2023/08/21 07:40:47;;;;;;;19.87;17.97;;;29.40;99.90;;;;;;4815319;29;20505;-84
2023/08/21 07:43:13;;;;;;;18.70;17.10;;;29.40;99.90;;;;;;4817409;29;20181;-80
2023/08/21 07:45:38;;;;;;;19.27;17.70;;;29.50;99.90;;;;;;4816416;29;20213;-85
2023/08/21 07:48:04;;;;;;;19.10;17.37;;;29.60;99.90;;;;;;4812140;29;20592;-80
2023/08/21 07:50:30;;;;;;;20.27;18.40;;;29.60;99.90;;;;;;4817973;29;20297;-79
2023/08/21 07:52:56;;;;;;;19.00;17.30;;;29.80;99.90;;;;;;4817340;29;20438;-79
2023/08/21 07:55:21;;;;;;;18.60;17.00;;;29.80;99.90;;;;;;4817449;29;20236;-80
2023/08/21 07:57:47;;;;;;;18.17;16.43;;;30.00;99.90;;;;;;4817978;29;20825;-80
2023/08/21 08:00:13;;;;;;;18.80;16.97;;;30.10;99.90;;;;;;4831676;29;20216;-80
2023/08/21 08:02:40;;;;;;;483.23;348.53;;;30.20;99.90;;;;;;4817697;29;20759;-86
2023/08/21 08:05:06;;;;;;;22.70;20.50;;;30.30;99.90;;;;;;4830621;29;20544;-80
2023/08/21 08:07:31;;;;;;;18.50;16.90;;;30.40;99.90;;;;;;4830887;29;20512;-79
2023/08/21 08:09:57;;;;;;;17.13;15.70;;;30.50;99.90;;;;;;4815521;29;20551;-85
2023/08/21 08:12:23;;;;;;;18.23;16.63;;;30.60;99.90;;;;;;4814414;29;20183;-83
2023/08/21 08:14:48;;;;;;;17.20;15.50;;;30.60;99.90;;;;;;4818373;29;20255;-80
2023/08/21 08:17:14;;;;;;;17.23;15.73;;;30.50;99.90;;;;;;4817168;29;20278;-80
2023/08/21 08:19:40;;;;;;;16.20;14.60;;;30.60;99.90;;;;;;4830524;29;20220;-85
2023/08/21 08:22:05;;;;;;;17.87;16.30;;;30.50;99.90;;;;;;4829544;29;20249;-85
2023/08/21 08:24:31;;;;;;;17.00;15.60;;;30.50;99.90;;;;;;4817048;29;20201;-80
2023/08/21 08:26:59;;;;;;;16.67;15.27;;;30.70;99.90;;;;;;4814956;29;20268;-80
2023/08/21 08:29:25;;;;;;;15.97;14.63;;;30.90;99.90;;;;;;4816431;29;20414;-86
2023/08/21 08:31:51;;;;;;;17.20;15.70;;;31.00;99.90;;;;;;4814512;29;20421;-85
2023/08/21 08:34:20;;;;;;;16.47;14.83;;;31.10;99.90;;;;;;4815764;29;20186;-79
2023/08/21 08:36:46;;;;;;;16.43;15.03;;;31.20;99.90;;;;;;4830332;29;20205;-80
2023/08/21 08:39:11;;;;;;;15.30;14.00;;;31.20;99.90;;;;;;4816555;29;20862;-86
2023/08/21 08:41:49;;;;;;;14.67;13.57;;;31.30;99.90;;;;;;4830828;29;20235;-85
2023/08/21 08:44:17;;;;;;;16.77;15.17;;;31.50;99.90;;;;;;4831403;29;20200;-79
2023/08/21 08:46:43;;;;;;;16.53;15.10;;;31.60;99.90;;;;;;4825738;29;20428;-86
2023/08/21 08:49:08;;;;;;;16.80;15.40;;;31.80;99.90;;;;;;4842742;29;20541;-86
2023/08/21 08:51:37;;;;;;;15.37;14.07;;;31.90;99.90;;;;;;4817226;29;20490;-79
2023/08/21 08:54:03;;;;;;;15.90;14.60;;;31.80;99.90;;;;;;4815209;29;20230;-86
2023/08/21 08:56:29;;;;;;;15.07;13.87;;;31.50;99.90;;;;;;4817766;29;20728;-86
2023/08/21 08:58:55;;;;;;;16.47;15.00;;;31.40;99.90;;;;;;4831521;29;20500;-85
2023/08/21 09:01:20;;;;;;;15.83;14.53;;;31.40;99.90;;;;;;4831465;29;20229;-84
2023/08/21 09:03:46;;;;;;;15.50;14.30;;;31.80;99.90;;;;;;4816970;29;20206;-79
2023/08/21 09:06:12;;;;;;;15.47;14.10;;;32.30;99.90;;;;;;4815105;29;20229;-78
2023/08/21 09:08:38;;;;;;;14.87;13.60;;;32.70;99.90;;;;;;4816434;29;20421;-79
2023/08/21 09:11:03;;;;;;;14.93;13.83;;;32.80;99.90;;;;;;4815066;29;20205;-78
2023/08/21 09:13:31;;;;;;;14.30;13.20;;;32.70;99.90;;;;;;4817741;29;20297;-79
2023/08/21 09:15:58;;;;;;;15.97;14.57;;;32.60;99.90;;;;;;4831443;29;20668;-78
2023/08/21 09:18:24;;;;;;;44.00;36.27;;;32.70;99.90;;;;;;4817456;29;20473;-86
2023/08/21 09:20:49;;;;;;;30.73;27.67;;;32.70;99.90;;;;;;4817636;29;20974;-86
2023/08/21 09:23:16;;;;;;;14.07;12.93;;;32.80;99.90;;;;;;4814757;29;20432;-85
2023/08/21 09:25:47;;;;;;;15.87;13.20;;;32.80;99.90;;;;;;4825984;29;20671;-79
2023/08/21 09:28:14;;;;;;;13.83;12.63;;;32.80;99.90;;;;;;4848025;29;20535;-78
2023/08/21 09:30:54;;;;;;;15.10;13.80;;;32.70;99.90;;;;;;4849612;29;20504;-86
2023/08/21 09:33:21;;;;;;;15.30;14.10;;;32.50;99.90;;;;;;4846189;29;20943;-83
2023/08/21 09:35:48;;;;;;;14.43;13.13;;;32.40;99.90;;;;;;4828870;29;20528;-79
2023/08/21 09:38:16;;;;;;;14.17;12.93;;;32.50;99.90;;;;;;4814882;29;21050;-85
2023/08/21 09:40:43;;;;;;;15.37;13.40;;;32.60;99.90;;;;;;4815773;29;20441;-85
2023/08/21 09:43:11;;;;;;;14.30;13.07;;;32.60;99.90;;;;;;4815803;29;20957;-79
2023/08/21 09:45:38;;;;;;;13.57;12.50;;;32.70;99.90;;;;;;4815731;29;21096;-78
2023/08/21 09:48:05;;;;;;;14.43;13.23;;;32.70;99.90;;;;;;4815592;29;20796;-79
2023/08/21 09:50:31;;;;;;;14.90;13.60;;;32.70;99.90;;;;;;4814987;29;20453;-85
2023/08/21 09:52:58;;;;;;;13.80;12.60;;;32.70;99.90;;;;;;4813948;29;20536;-86
2023/08/21 09:55:29;;;;;;;14.83;13.60;;;32.70;99.90;;;;;;4816064;29;21218;-85
2023/08/21 09:57:58;;;;;;;14.20;12.80;;;32.70;99.90;;;;;;4815043;29;20645;-85
2023/08/21 10:00:30;;;;;;;13.70;12.40;;;32.70;99.90;;;;;;4832436;29;20994;-85
2023/08/21 10:03:01;;;;;;;14.17;12.77;;;32.70;99.90;;;;;;4811345;29;20410;-85
2023/08/21 10:05:28;;;;;;;14.67;13.37;;;32.70;99.90;;;;;;4813556;29;20512;-85
2023/08/21 10:07:55;;;;;;;14.90;13.50;;;32.70;99.90;;;;;;4814230;29;20429;-79
2023/08/21 10:10:21;;;;;;;14.37;12.97;;;32.70;99.90;;;;;;4814227;29;20814;-79
2023/08/21 10:12:48;;;;;;;14.37;13.00;;;32.70;99.90;;;;;;4812778;29;20429;-85
2023/08/21 10:15:15;;;;;;;13.90;12.90;;;32.70;99.90;;;;;;4812616;29;20210;-78
2023/08/21 10:17:43;;;;;;;13.87;12.77;;;32.80;99.90;;;;;;4810442;29;20538;-85
2023/08/21 10:20:12;;;;;;;12.87;11.70;;;32.80;99.90;;;;;;4810369;29;20548;-86
2023/08/21 10:22:48;;;;;;;14.87;13.50;;;32.80;99.90;;;;;;4809902;29;20845;-85
2023/08/21 10:25:22;;;;;;;13.40;12.40;;;32.90;99.90;;;;;;4811297;29;20449;-79
2023/08/21 10:28:03;;;;;;;13.43;12.23;;;33.00;99.90;;;;;;4804124;29;20406;-85
2023/08/21 10:30:29;;;;;;;14.43;12.73;;;33.00;99.90;;;;;;4808762;29;20492;-85
2023/08/21 10:32:58;;;;;;;13.40;12.40;;;33.00;99.90;;;;;;4812920;29;20418;-85
2023/08/21 10:35:28;;;;;;;14.27;13.07;;;33.00;99.90;;;;;;4813846;29;20648;-79
2023/08/21 10:38:11;;;;;;;13.33;12.20;;;33.00;99.90;;;;;;4815568;29;20553;-79
2023/08/21 10:40:38;;;;;;;13.53;12.43;;;33.00;99.90;;;;;;4829730;29;20454;-86
2023/08/21 10:43:04;;;;;;;13.77;12.67;;;33.00;99.90;;;;;;4813245;29;20425;-86
2023/08/21 10:45:30;;;;;;;13.60;12.40;;;33.00;99.90;;;;;;4816434;29;20458;-86
2023/08/21 10:47:59;;;;;;;14.10;12.80;;;33.00;99.90;;;;;;4815820;29;20410;-78
2023/08/21 10:50:26;;;;;;;13.30;12.07;;;32.90;99.90;;;;;;4814941;29;20462;-85
2023/08/21 10:52:53;;;;;;;12.97;11.80;;;33.00;99.90;;;;;;4813489;29;20466;-79
2023/08/21 10:55:19;;;;;;;13.33;12.33;;;33.00;99.90;;;;;;4813441;29;21088;-86
2023/08/21 10:57:49;;;;;;;13.47;12.40;;;33.10;99.90;;;;;;4813458;29;20487;-79
2023/08/21 11:00:20;;;;;;;13.13;11.93;;;33.10;99.90;;;;;;4813871;29;20457;-79
2023/08/21 11:02:50;;;;;;;13.37;12.17;;;33.00;99.90;;;;;;4813732;29;20429;-79
2023/08/21 11:05:16;;;;;;;13.67;12.47;;;33.10;99.90;;;;;;4814018;29;20553;-79
2023/08/21 11:07:47;;;;;;;12.57;11.57;;;33.10;99.90;;;;;;4813543;29;20500;-80
2023/08/21 11:10:16;;;;;;;13.17;11.97;;;33.20;99.90;;;;;;4813791;29;20457;-79
2023/08/21 11:12:56;;;;;;;13.40;12.30;;;33.30;99.90;;;;;;4813013;29;20799;-86
2023/08/21 11:15:22;;;;;;;13.93;12.83;;;33.40;99.90;;;;;;4813964;29;20844;-80
2023/08/21 11:18:02;;;;;;;13.93;12.83;;;33.40;99.90;;;;;;4814397;29;20473;-85
2023/08/21 11:20:36;;;;;;;13.80;12.70;;;33.30;99.90;;;;;;4813191;29;20461;-85
2023/08/21 11:23:09;;;;;;;13.80;12.60;;;33.30;99.90;;;;;;4813263;29;20426;-85
2023/08/21 11:25:38;;;;;;;12.57;11.37;;;33.20;99.90;;;;;;4812859;29;20458;-79
2023/08/21 11:28:05;;;;;;;13.57;12.47;;;33.20;99.90;;;;;;4811231;29;20653;-79
2023/08/21 11:30:32;;;;;;;14.10;13.00;;;33.20;99.90;;;;;;4813432;29;20454;-79
2023/08/21 11:33:09;;;;;;;14.57;13.30;;;33.30;99.90;;;;;;4810880;29;20504;-78
2023/08/21 11:35:35;;;;;;;12.73;11.73;;;33.30;99.90;;;;;;4810474;29;20474;-86
2023/08/21 11:38:01;;;;;;;13.53;12.47;;;33.30;99.90;;;;;;4811985;29;20465;-85
2023/08/21 11:40:26;;;;;;;15.00;13.70;;;33.40;99.90;;;;;;4813097;29;20463;-84
2023/08/21 11:42:52;;;;;;;14.37;13.27;;;33.40;99.90;;;;;;4810697;29;20186;-79
2023/08/21 11:45:20;;;;;;;13.50;12.10;;;33.30;99.90;;;;;;4812396;29;20267;-85
2023/08/21 11:47:46;;;;;;;13.97;11.53;;;33.30;99.90;;;;;;4814373;29;20239;-85
2023/08/21 11:50:15;;;;;;;12.60;11.57;;;33.30;99.90;;;;;;4817915;29;20659;-80
2023/08/21 11:52:42;;;;;;;13.50;12.30;;;33.30;99.90;;;;;;4816943;29;20352;-85
2023/08/21 11:55:12;;;;;;;12.60;11.60;;;33.30;99.90;;;;;;4817642;29;20477;-86
2023/08/21 11:57:51;;;;;;;13.73;12.47;;;33.40;99.90;;;;;;4815837;29;20468;-86
2023/08/21 12:00:22;;;;;;;13.43;12.27;;;33.40;99.90;;;;;;4815005;29;20959;-80
2023/08/21 12:03:17;;;;;;;13.27;12.07;;;33.40;99.90;;;;;;4814342;29;20618;-86
2023/08/21 12:05:46;;;;;;;13.23;12.17;;;33.30;99.90;;;;;;4812197;29;20541;-79
2023/08/21 12:08:11;;;;;;;13.53;12.43;;;33.30;99.90;;;;;;4812551;29;20536;-86
2023/08/21 12:10:37;;;;;;;12.83;11.70;;;33.40;99.90;;;;;;4813428;29;20805;-85
2023/08/21 12:13:03;;;;;;;13.80;12.60;;;33.30;99.90;;;;;;4827349;29;20708;-85
2023/08/21 12:15:29;;;;;;;13.37;12.37;;;33.30;99.90;;;;;;4817499;29;20238;-86
2023/08/21 12:17:55;;;;;;;12.43;11.50;;;33.40;99.90;;;;;;4831046;29;20501;-82
2023/08/21 12:20:20;;;;;;;13.13;12.17;;;33.50;99.90;;;;;;4818374;29;20312;-79
2023/08/21 12:22:46;;;;;;;13.03;12.03;;;33.60;99.90;;;;;;4817648;29;20617;-79
2023/08/21 12:25:13;;;;;;;12.37;11.30;;;33.60;99.90;;;;;;4817946;29;20700;-86